sensor_id;sensor_type;location;lat;lon;timestamp;P1;durP1;ratioP1;P2;durP2;ratioP2
5847;SDS011;8756;49.29324300;8.70599800;2022-09-09T00:04:55;12.13;;;2.20;;
5847;SDS011;8756;49.29324300;8.70599800;2022-09-09T00:07:37;11.00;;;2.70;;
5847;SDS011;8756;49.29324300;8.70599800;2022-09-09T00:15:24;12.37;;;2.67;;
5847;SDS011;8756;49.29324300;8.70599800;2022-09-09T00:18:15;11.00;;;2.83;;
5847;SDS011;8756;49.29324300;8.70599800;2022-09-09T00:20:52;11.10;;;2.80;;
5847;SDS011;8756;49.29324300;8.70599800;2022-09-09T00:23:28;11.57;;;2.67;;
5847;SDS011;8756;49.29324300;8.70599800;2022-09-09T00:26:03;10.90;;;2.87;;
5847;SDS011;8756;49.29324300;8.70599800;2022-09-09T00:28:30;11.00;;;3.50;;
5847;SDS011;8756;49.29324300;8.70599800;2022-09-09T00:31:10;15.10;;;2.77;;
5847;SDS011;8756;49.29324300;8.70599800;2022-09-09T00:33:38;10.83;;;2.27;;
5847;SDS011;8756;49.29324300;8.70599800;2022-09-09T00:36:09;11.13;;;3.00;;
5847;SDS011;8756;49.29324300;8.70599800;2022-09-09T00:38:42;13.17;;;2.60;;
5847;SDS011;8756;49.29324300;8.70599800;2022-09-09T00:41:19;13.40;;;3.23;;
5847;SDS011;8756;49.29324300;8.70599800;2022-09-09T00:43:54;12.90;;;3.27;;
5847;SDS011;8756;49.29324300;8.70599800;2022-09-09T00:55:15;11.27;;;2.40;;
5847;SDS011;8756;49.29324300;8.70599800;2022-09-09T00:57:51;13.73;;;2.67;;
5847;SDS011;8756;49.29324300;8.70599800;2022-09-09T01:03:52;10.20;;;2.70;;
5847;SDS011;8756;49.29324300;8.70599800;2022-09-09T01:06:13;11.37;;;2.80;;
5847;SDS011;8756;49.29324300;8.70599800;2022-09-09T01:17:04;9.73;;;2.40;;
5847;SDS011;8756;49.29324300;8.70599800;2022-09-09T01:27:51;11.10;;;3.30;;
5847;SDS011;8756;49.29324300;8.70599800;2022-09-09T01:30:21;11.80;;;3.30;;
5847;SDS011;8756;49.29324300;8.70599800;2022-09-09T01:32:53;13.80;;;4.13;;
5847;SDS011;8756;49.29324300;8.70599800;2022-09-09T01:38:25;13.43;;;3.30;;
5847;SDS011;8756;49.29324300;8.70599800;2022-09-09T01:40:52;10.53;;;2.97;;
5847;SDS011;8756;49.29324300;8.70599800;2022-09-09T01:43:20;13.83;;;2.77;;
5847;SDS011;8756;49.29324300;8.70599800;2022-09-09T01:45:47;12.53;;;3.70;;
5847;SDS011;8756;49.29324300;8.70599800;2022-09-09T01:48:16;13.90;;;3.30;;
5847;SDS011;8756;49.29324300;8.70599800;2022-09-09T01:50:43;10.53;;;2.60;;
5847;SDS011;8756;49.29324300;8.70599800;2022-09-09T01:53:09;12.83;;;2.93;;
5847;SDS011;8756;49.29324300;8.70599800;2022-09-09T01:55:40;11.50;;;2.50;;
5847;SDS011;8756;49.29324300;8.70599800;2022-09-09T02:01:20;13.17;;;2.63;;
5847;SDS011;8756;49.29324300;8.70599800;2022-09-09T02:04:02;13.00;;;3.20;;
5847;SDS011;8756;49.29324300;8.70599800;2022-09-09T02:09:04;11.80;;;3.20;;
5847;SDS011;8756;49.29324300;8.70599800;2022-09-09T02:11:31;10.87;;;3.07;;
5847;SDS011;8756;49.29324300;8.70599800;2022-09-09T02:14:18;11.47;;;3.07;;
5847;SDS011;8756;49.29324300;8.70599800;2022-09-09T02:16:53;13.77;;;2.97;;
5847;SDS011;8756;49.29324300;8.70599800;2022-09-09T02:21:50;13.40;;;2.83;;
5847;SDS011;8756;49.29324300;8.70599800;2022-09-09T02:24:18;12.80;;;2.87;;
5847;SDS011;8756;49.29324300;8.70599800;2022-09-09T02:26:44;10.70;;;2.50;;
5847;SDS011;8756;49.29324300;8.70599800;2022-09-09T02:29:22;9.90;;;2.43;;
5847;SDS011;8756;49.29324300;8.70599800;2022-09-09T02:32:11;14.30;;;2.63;;
5847;SDS011;8756;49.29324300;8.70599800;2022-09-09T02:34:48;12.50;;;3.10;;
5847;SDS011;8756;49.29324300;8.70599800;2022-09-09T02:37:21;9.50;;;2.00;;
5847;SDS011;8756;49.29324300;8.70599800;2022-09-09T02:39:53;11.10;;;2.47;;
5847;SDS011;8756;49.29324300;8.70599800;2022-09-09T02:42:19;10.70;;;2.50;;
5847;SDS011;8756;49.29324300;8.70599800;2022-09-09T02:44:45;11.33;;;2.27;;
5847;SDS011;8756;49.29324300;8.70599800;2022-09-09T02:52:54;9.70;;;2.27;;
5847;SDS011;8756;49.29324300;8.70599800;2022-09-09T02:58:05;11.20;;;2.33;;
5847;SDS011;8756;49.29324300;8.70599800;2022-09-09T03:00:35;11.60;;;2.30;;
5847;SDS011;8756;49.29324300;8.70599800;2022-09-09T03:03:05;10.40;;;2.00;;
5847;SDS011;8756;49.29324300;8.70599800;2022-09-09T03:05:32;12.87;;;2.60;;
5847;SDS011;8756;49.29324300;8.70599800;2022-09-09T03:07:58;11.40;;;2.20;;
5847;SDS011;8756;49.29324300;8.70599800;2022-09-09T03:10:24;12.03;;;1.97;;
5847;SDS011;8756;49.29324300;8.70599800;2022-09-09T03:12:50;10.80;;;2.50;;
5847;SDS011;8756;49.29324300;8.70599800;2022-09-09T03:15:15;13.23;;;2.47;;
5847;SDS011;8756;49.29324300;8.70599800;2022-09-09T03:17:41;12.03;;;2.57;;
5847;SDS011;8756;49.29324300;8.70599800;2022-09-09T03:20:07;11.33;;;2.00;;
5847;SDS011;8756;49.29324300;8.70599800;2022-09-09T03:22:34;10.90;;;2.27;;
5847;SDS011;8756;49.29324300;8.70599800;2022-09-09T03:24:59;11.60;;;3.03;;
5847;SDS011;8756;49.29324300;8.70599800;2022-09-09T03:27:27;13.90;;;2.60;;
5847;SDS011;8756;49.29324300;8.70599800;2022-09-09T03:29:53;9.93;;;2.17;;
5847;SDS011;8756;49.29324300;8.70599800;2022-09-09T03:32:19;9.73;;;2.20;;
5847;SDS011;8756;49.29324300;8.70599800;2022-09-09T03:34:47;9.50;;;2.20;;
5847;SDS011;8756;49.29324300;8.70599800;2022-09-09T03:37:15;11.33;;;2.43;;
5847;SDS011;8756;49.29324300;8.70599800;2022-09-09T03:39:42;10.90;;;1.93;;
5847;SDS011;8756;49.29324300;8.70599800;2022-09-09T03:42:07;11.23;;;2.03;;
5847;SDS011;8756;49.29324300;8.70599800;2022-09-09T03:44:33;9.90;;;1.83;;
5847;SDS011;8756;49.29324300;8.70599800;2022-09-09T03:46:58;11.57;;;2.03;;
5847;SDS011;8756;49.29324300;8.70599800;2022-09-09T03:49:25;11.53;;;2.47;;
5847;SDS011;8756;49.29324300;8.70599800;2022-09-09T03:51:53;10.30;;;2.03;;
5847;SDS011;8756;49.29324300;8.70599800;2022-09-09T03:54:21;14.23;;;2.33;;
5847;SDS011;8756;49.29324300;8.70599800;2022-09-09T03:56:47;12.80;;;2.57;;
5847;SDS011;8756;49.29324300;8.70599800;2022-09-09T03:59:14;11.00;;;2.00;;
5847;SDS011;8756;49.29324300;8.70599800;2022-09-09T04:01:40;10.30;;;1.90;;
5847;SDS011;8756;49.29324300;8.70599800;2022-09-09T04:04:05;13.10;;;2.37;;
5847;SDS011;8756;49.29324300;8.70599800;2022-09-09T04:06:33;10.40;;;2.17;;
5847;SDS011;8756;49.29324300;8.70599800;2022-09-09T04:08:59;12.70;;;2.13;;
5847;SDS011;8756;49.29324300;8.70599800;2022-09-09T04:11:28;13.37;;;2.10;;
5847;SDS011;8756;49.29324300;8.70599800;2022-09-09T04:13:54;13.63;;;2.60;;
5847;SDS011;8756;49.29324300;8.70599800;2022-09-09T04:16:19;11.10;;;1.70;;
5847;SDS011;8756;49.29324300;8.70599800;2022-09-09T04:18:45;10.50;;;2.30;;
5847;SDS011;8756;49.29324300;8.70599800;2022-09-09T04:21:11;11.13;;;2.30;;
5847;SDS011;8756;49.29324300;8.70599800;2022-09-09T04:23:37;12.53;;;2.77;;
5847;SDS011;8756;49.29324300;8.70599800;2022-09-09T04:26:03;11.47;;;2.30;;
5847;SDS011;8756;49.29324300;8.70599800;2022-09-09T04:28:31;8.80;;;1.73;;
5847;SDS011;8756;49.29324300;8.70599800;2022-09-09T04:31:07;11.90;;;2.07;;
5847;SDS011;8756;49.29324300;8.70599800;2022-09-09T04:33:34;9.13;;;1.97;;
5847;SDS011;8756;49.29324300;8.70599800;2022-09-09T04:36:00;11.60;;;2.40;;
5847;SDS011;8756;49.29324300;8.70599800;2022-09-09T04:38:26;9.50;;;2.20;;
5847;SDS011;8756;49.29324300;8.70599800;2022-09-09T04:40:52;11.00;;;2.37;;
5847;SDS011;8756;49.29324300;8.70599800;2022-09-09T04:43:18;10.43;;;2.37;;
5847;SDS011;8756;49.29324300;8.70599800;2022-09-09T04:45:49;12.70;;;2.13;;
5847;SDS011;8756;49.29324300;8.70599800;2022-09-09T04:48:16;9.93;;;2.57;;
5847;SDS011;8756;49.29324300;8.70599800;2022-09-09T04:50:42;12.70;;;2.27;;
5847;SDS011;8756;49.29324300;8.70599800;2022-09-09T04:53:08;10.80;;;2.10;;
5847;SDS011;8756;49.29324300;8.70599800;2022-09-09T04:55:33;11.03;;;2.37;;
5847;SDS011;8756;49.29324300;8.70599800;2022-09-09T04:58:03;10.17;;;1.80;;
5847;SDS011;8756;49.29324300;8.70599800;2022-09-09T05:00:30;9.73;;;2.00;;
5847;SDS011;8756;49.29324300;8.70599800;2022-09-09T05:02:56;12.03;;;2.40;;
5847;SDS011;8756;49.29324300;8.70599800;2022-09-09T05:05:21;10.37;;;2.90;;
5847;SDS011;8756;49.29324300;8.70599800;2022-09-09T05:07:47;10.70;;;2.50;;
5847;SDS011;8756;49.29324300;8.70599800;2022-09-09T05:10:13;10.87;;;2.20;;
5847;SDS011;8756;49.29324300;8.70599800;2022-09-09T05:12:41;10.83;;;2.40;;
5847;SDS011;8756;49.29324300;8.70599800;2022-09-09T05:15:07;12.23;;;2.30;;
5847;SDS011;8756;49.29324300;8.70599800;2022-09-09T05:17:33;11.00;;;2.23;;
5847;SDS011;8756;49.29324300;8.70599800;2022-09-09T05:19:58;10.83;;;2.00;;
5847;SDS011;8756;49.29324300;8.70599800;2022-09-09T05:22:24;10.00;;;2.37;;
5847;SDS011;8756;49.29324300;8.70599800;2022-09-09T05:24:50;9.97;;;2.30;;
5847;SDS011;8756;49.29324300;8.70599800;2022-09-09T05:27:16;9.93;;;2.10;;
5847;SDS011;8756;49.29324300;8.70599800;2022-09-09T05:29:45;10.47;;;2.00;;
5847;SDS011;8756;49.29324300;8.70599800;2022-09-09T05:32:11;9.67;;;1.93;;
5847;SDS011;8756;49.29324300;8.70599800;2022-09-09T05:34:40;9.00;;;2.00;;
5847;SDS011;8756;49.29324300;8.70599800;2022-09-09T05:37:05;14.40;;;3.00;;
5847;SDS011;8756;49.29324300;8.70599800;2022-09-09T05:39:32;10.30;;;1.93;;
5847;SDS011;8756;49.29324300;8.70599800;2022-09-09T05:41:58;11.60;;;2.53;;
5847;SDS011;8756;49.29324300;8.70599800;2022-09-09T05:44:24;10.70;;;1.73;;
5847;SDS011;8756;49.29324300;8.70599800;2022-09-09T05:46:52;10.50;;;1.70;;
5847;SDS011;8756;49.29324300;8.70599800;2022-09-09T05:49:19;11.50;;;1.90;;
5847;SDS011;8756;49.29324300;8.70599800;2022-09-09T05:51:45;10.27;;;1.77;;
5847;SDS011;8756;49.29324300;8.70599800;2022-09-09T05:54:11;10.30;;;1.80;;
5847;SDS011;8756;49.29324300;8.70599800;2022-09-09T05:56:40;9.70;;;2.03;;
5847;SDS011;8756;49.29324300;8.70599800;2022-09-09T05:59:06;9.57;;;2.17;;
5847;SDS011;8756;49.29324300;8.70599800;2022-09-09T06:01:32;10.20;;;2.00;;
5847;SDS011;8756;49.29324300;8.70599800;2022-09-09T06:03:59;10.73;;;1.73;;
5847;SDS011;8756;49.29324300;8.70599800;2022-09-09T06:06:26;8.60;;;1.50;;
5847;SDS011;8756;49.29324300;8.70599800;2022-09-09T06:08:55;10.63;;;2.30;;
5847;SDS011;8756;49.29324300;8.70599800;2022-09-09T06:11:27;9.93;;;2.17;;
5847;SDS011;8756;49.29324300;8.70599800;2022-09-09T06:13:57;11.80;;;2.40;;
5847;SDS011;8756;49.29324300;8.70599800;2022-09-09T06:16:25;10.30;;;1.90;;
5847;SDS011;8756;49.29324300;8.70599800;2022-09-09T06:18:52;12.77;;;2.03;;
5847;SDS011;8756;49.29324300;8.70599800;2022-09-09T06:21:37;11.40;;;2.23;;
5847;SDS011;8756;49.29324300;8.70599800;2022-09-09T06:24:03;10.13;;;1.93;;
5847;SDS011;8756;49.29324300;8.70599800;2022-09-09T06:26:30;10.90;;;2.33;;
5847;SDS011;8756;49.29324300;8.70599800;2022-09-09T06:28:58;12.60;;;2.07;;
5847;SDS011;8756;49.29324300;8.70599800;2022-09-09T06:31:25;12.37;;;1.90;;
5847;SDS011;8756;49.29324300;8.70599800;2022-09-09T06:33:55;10.00;;;1.87;;
5847;SDS011;8756;49.29324300;8.70599800;2022-09-09T06:36:22;12.13;;;2.03;;
5847;SDS011;8756;49.29324300;8.70599800;2022-09-09T06:38:52;13.10;;;2.50;;
5847;SDS011;8756;49.29324300;8.70599800;2022-09-09T06:41:19;13.13;;;2.30;;
5847;SDS011;8756;49.29324300;8.70599800;2022-09-09T06:43:46;11.83;;;2.60;;
5847;SDS011;8756;49.29324300;8.70599800;2022-09-09T06:48:46;10.47;;;1.90;;
5847;SDS011;8756;49.29324300;8.70599800;2022-09-09T06:51:22;12.00;;;1.97;;
5847;SDS011;8756;49.29324300;8.70599800;2022-09-09T06:53:51;9.57;;;1.90;;
5847;SDS011;8756;49.29324300;8.70599800;2022-09-09T06:58:43;11.53;;;2.00;;
5847;SDS011;8756;49.29324300;8.70599800;2022-09-09T07:01:11;10.93;;;2.00;;
5847;SDS011;8756;49.29324300;8.70599800;2022-09-09T07:03:38;11.60;;;2.33;;
5847;SDS011;8756;49.29324300;8.70599800;2022-09-09T07:06:05;11.63;;;2.40;;
5847;SDS011;8756;49.29324300;8.70599800;2022-09-09T07:08:32;12.87;;;2.07;;
5847;SDS011;8756;49.29324300;8.70599800;2022-09-09T07:11:02;13.13;;;2.30;;
5847;SDS011;8756;49.29324300;8.70599800;2022-09-09T07:13:32;11.83;;;2.30;;
5847;SDS011;8756;49.29324300;8.70599800;2022-09-09T07:16:09;16.23;;;2.70;;
5847;SDS011;8756;49.29324300;8.70599800;2022-09-09T07:18:36;10.43;;;2.17;;
5847;SDS011;8756;49.29324300;8.70599800;2022-09-09T07:21:02;12.37;;;2.17;;
5847;SDS011;8756;49.29324300;8.70599800;2022-09-09T07:23:29;12.40;;;2.50;;
5847;SDS011;8756;49.29324300;8.70599800;2022-09-09T07:25:55;13.87;;;2.57;;
5847;SDS011;8756;49.29324300;8.70599800;2022-09-09T07:28:22;15.60;;;2.50;;
5847;SDS011;8756;49.29324300;8.70599800;2022-09-09T07:30:55;10.23;;;1.70;;
5847;SDS011;8756;49.29324300;8.70599800;2022-09-09T07:33:23;16.33;;;2.23;;
5847;SDS011;8756;49.29324300;8.70599800;2022-09-09T07:35:49;14.17;;;2.00;;
5847;SDS011;8756;49.29324300;8.70599800;2022-09-09T07:38:15;13.07;;;2.10;;
5847;SDS011;8756;49.29324300;8.70599800;2022-09-09T07:40:41;12.67;;;2.20;;
5847;SDS011;8756;49.29324300;8.70599800;2022-09-09T07:43:07;14.50;;;2.77;;
5847;SDS011;8756;49.29324300;8.70599800;2022-09-09T07:45:33;12.73;;;1.77;;
5847;SDS011;8756;49.29324300;8.70599800;2022-09-09T07:48:00;10.80;;;2.00;;
5847;SDS011;8756;49.29324300;8.70599800;2022-09-09T07:50:26;11.87;;;2.20;;
5847;SDS011;8756;49.29324300;8.70599800;2022-09-09T07:52:52;11.03;;;2.00;;
5847;SDS011;8756;49.29324300;8.70599800;2022-09-09T07:55:18;9.73;;;1.60;;
5847;SDS011;8756;49.29324300;8.70599800;2022-09-09T07:57:45;15.53;;;2.60;;
5847;SDS011;8756;49.29324300;8.70599800;2022-09-09T08:00:10;10.50;;;2.10;;
5847;SDS011;8756;49.29324300;8.70599800;2022-09-09T08:02:37;11.27;;;2.20;;
5847;SDS011;8756;49.29324300;8.70599800;2022-09-09T08:05:02;12.20;;;2.40;;
5847;SDS011;8756;49.29324300;8.70599800;2022-09-09T08:07:29;11.87;;;1.93;;
5847;SDS011;8756;49.29324300;8.70599800;2022-09-09T08:09:55;12.17;;;1.93;;
5847;SDS011;8756;49.29324300;8.70599800;2022-09-09T08:12:21;12.00;;;2.43;;
5847;SDS011;8756;49.29324300;8.70599800;2022-09-09T08:14:48;12.33;;;2.37;;
5847;SDS011;8756;49.29324300;8.70599800;2022-09-09T08:17:14;11.63;;;2.10;;
5847;SDS011;8756;49.29324300;8.70599800;2022-09-09T08:19:39;11.13;;;2.30;;
5847;SDS011;8756;49.29324300;8.70599800;2022-09-09T08:22:05;12.17;;;2.10;;
5847;SDS011;8756;49.29324300;8.70599800;2022-09-09T08:24:31;13.17;;;2.50;;
5847;SDS011;8756;49.29324300;8.70599800;2022-09-09T08:26:57;12.47;;;2.43;;
5847;SDS011;8756;49.29324300;8.70599800;2022-09-09T08:29:23;16.13;;;2.33;;
5847;SDS011;8756;49.29324300;8.70599800;2022-09-09T08:31:49;11.07;;;2.17;;
5847;SDS011;8756;49.29324300;8.70599800;2022-09-09T08:34:17;10.30;;;1.80;;
5847;SDS011;8756;49.29324300;8.70599800;2022-09-09T08:36:45;12.90;;;2.50;;
5847;SDS011;8756;49.29324300;8.70599800;2022-09-09T08:39:12;13.30;;;2.50;;
5847;SDS011;8756;49.29324300;8.70599800;2022-09-09T08:58:33;14.10;;;3.13;;
5847;SDS011;8756;49.29324300;8.70599800;2022-09-09T09:09:50;12.40;;;3.00;;
5847;SDS011;8756;49.29324300;8.70599800;2022-09-09T09:12:24;12.33;;;2.63;;
5847;SDS011;8756;49.29324300;8.70599800;2022-09-09T09:14:52;10.30;;;2.77;;
5847;SDS011;8756;49.29324300;8.70599800;2022-09-09T09:17:20;13.20;;;2.77;;
5847;SDS011;8756;49.29324300;8.70599800;2022-09-09T09:19:50;14.57;;;3.00;;
5847;SDS011;8756;49.29324300;8.70599800;2022-09-09T09:27:33;12.00;;;2.40;;
5847;SDS011;8756;49.29324300;8.70599800;2022-09-09T09:30:01;10.30;;;2.80;;
5847;SDS011;8756;49.29324300;8.70599800;2022-09-09T09:32:38;11.90;;;2.43;;
5847;SDS011;8756;49.29324300;8.70599800;2022-09-09T09:35:09;13.07;;;2.57;;
5847;SDS011;8756;49.29324300;8.70599800;2022-09-09T09:37:37;12.50;;;2.30;;
5847;SDS011;8756;49.29324300;8.70599800;2022-09-09T09:40:15;13.30;;;2.60;;
5847;SDS011;8756;49.29324300;8.70599800;2022-09-09T09:43:02;14.10;;;2.50;;
5847;SDS011;8756;49.29324300;8.70599800;2022-09-09T09:45:43;12.93;;;2.40;;
5847;SDS011;8756;49.29324300;8.70599800;2022-09-09T09:48:12;10.40;;;2.10;;
5847;SDS011;8756;49.29324300;8.70599800;2022-09-09T09:53:28;11.40;;;2.63;;
5847;SDS011;8756;49.29324300;8.70599800;2022-09-09T09:56:01;17.03;;;2.60;;
5847;SDS011;8756;49.29324300;8.70599800;2022-09-09T09:58:49;15.27;;;2.50;;
5847;SDS011;8756;49.29324300;8.70599800;2022-09-09T10:01:30;11.40;;;2.20;;
5847;SDS011;8756;49.29324300;8.70599800;2022-09-09T10:04:01;14.37;;;2.33;;
5847;SDS011;8756;49.29324300;8.70599800;2022-09-09T10:06:38;12.40;;;2.67;;
5847;SDS011;8756;49.29324300;8.70599800;2022-09-09T10:09:20;11.07;;;2.70;;
5847;SDS011;8756;49.29324300;8.70599800;2022-09-09T10:29:15;12.63;;;2.03;;
5847;SDS011;8756;49.29324300;8.70599800;2022-09-09T10:32:11;11.90;;;2.20;;
5847;SDS011;8756;49.29324300;8.70599800;2022-09-09T10:40:19;12.13;;;1.60;;
5847;SDS011;8756;49.29324300;8.70599800;2022-09-09T10:46:06;9.70;;;1.90;;
5847;SDS011;8756;49.29324300;8.70599800;2022-09-09T10:54:32;11.30;;;2.10;;
5847;SDS011;8756;49.29324300;8.70599800;2022-09-09T10:59:47;12.40;;;2.00;;
5847;SDS011;8756;49.29324300;8.70599800;2022-09-09T11:02:28;11.07;;;2.27;;
5847;SDS011;8756;49.29324300;8.70599800;2022-09-09T11:05:14;13.83;;;2.30;;
5847;SDS011;8756;49.29324300;8.70599800;2022-09-09T11:13:26;12.50;;;2.40;;
5847;SDS011;8756;49.29324300;8.70599800;2022-09-09T11:18:44;17.60;;;2.60;;
5847;SDS011;8756;49.29324300;8.70599800;2022-09-09T11:21:16;12.10;;;1.43;;
5847;SDS011;8756;49.29324300;8.70599800;2022-09-09T11:23:57;11.93;;;1.63;;
5847;SDS011;8756;49.29324300;8.70599800;2022-09-09T11:26:32;11.57;;;2.27;;
5847;SDS011;8756;49.29324300;8.70599800;2022-09-09T11:29:07;10.20;;;1.60;;
5847;SDS011;8756;49.29324300;8.70599800;2022-09-09T11:31:58;11.07;;;1.90;;
5847;SDS011;8756;49.29324300;8.70599800;2022-09-09T11:34:40;12.83;;;2.10;;
5847;SDS011;8756;49.29324300;8.70599800;2022-09-09T11:37:47;11.90;;;1.80;;
5847;SDS011;8756;49.29324300;8.70599800;2022-09-09T11:42:59;11.87;;;2.00;;
5847;SDS011;8756;49.29324300;8.70599800;2022-09-09T11:45:53;10.47;;;2.10;;
5847;SDS011;8756;49.29324300;8.70599800;2022-09-09T11:48:29;12.13;;;1.90;;
5847;SDS011;8756;49.29324300;8.70599800;2022-09-09T11:51:06;9.50;;;1.80;;
5847;SDS011;8756;49.29324300;8.70599800;2022-09-09T11:53:35;11.80;;;1.67;;
5847;SDS011;8756;49.29324300;8.70599800;2022-09-09T11:56:12;12.40;;;1.90;;
5847;SDS011;8756;49.29324300;8.70599800;2022-09-09T11:58:40;12.53;;;1.90;;
5847;SDS011;8756;49.29324300;8.70599800;2022-09-09T12:01:16;11.80;;;1.87;;
5847;SDS011;8756;49.29324300;8.70599800;2022-09-09T12:06:53;11.43;;;1.97;;
5847;SDS011;8756;49.29324300;8.70599800;2022-09-09T12:12:28;11.17;;;1.83;;
5847;SDS011;8756;49.29324300;8.70599800;2022-09-09T12:17:46;12.40;;;1.90;;
5847;SDS011;8756;49.29324300;8.70599800;2022-09-09T12:26:07;11.23;;;1.90;;
5847;SDS011;8756;49.29324300;8.70599800;2022-09-09T12:28:56;10.30;;;1.60;;
5847;SDS011;8756;49.29324300;8.70599800;2022-09-09T12:34:15;11.93;;;2.30;;
5847;SDS011;8756;49.29324300;8.70599800;2022-09-09T12:37:02;10.73;;;1.80;;
5847;SDS011;8756;49.29324300;8.70599800;2022-09-09T12:39:44;9.70;;;1.67;;
5847;SDS011;8756;49.29324300;8.70599800;2022-09-09T12:42:18;11.30;;;1.87;;
5847;SDS011;8756;49.29324300;8.70599800;2022-09-09T12:44:58;11.93;;;1.80;;
5847;SDS011;8756;49.29324300;8.70599800;2022-09-09T12:47:27;9.97;;;1.73;;
5847;SDS011;8756;49.29324300;8.70599800;2022-09-09T12:49:55;12.57;;;1.80;;
5847;SDS011;8756;49.29324300;8.70599800;2022-09-09T12:52:29;12.57;;;2.20;;
5847;SDS011;8756;49.29324300;8.70599800;2022-09-09T12:55:00;13.77;;;2.07;;
5847;SDS011;8756;49.29324300;8.70599800;2022-09-09T12:57:30;10.67;;;2.00;;
5847;SDS011;8756;49.29324300;8.70599800;2022-09-09T13:00:06;15.17;;;1.90;;
5847;SDS011;8756;49.29324300;8.70599800;2022-09-09T13:02:45;10.10;;;1.70;;
5847;SDS011;8756;49.29324300;8.70599800;2022-09-09T13:05:15;13.70;;;2.07;;
5847;SDS011;8756;49.29324300;8.70599800;2022-09-09T13:07:48;12.77;;;1.93;;
5847;SDS011;8756;49.29324300;8.70599800;2022-09-09T13:10:15;12.80;;;1.77;;
5847;SDS011;8756;49.29324300;8.70599800;2022-09-09T13:12:51;12.47;;;1.90;;
5847;SDS011;8756;49.29324300;8.70599800;2022-09-09T13:15:23;10.97;;;1.40;;
5847;SDS011;8756;49.29324300;8.70599800;2022-09-09T13:17:56;11.37;;;1.73;;
5847;SDS011;8756;49.29324300;8.70599800;2022-09-09T13:20:25;10.07;;;1.27;;
5847;SDS011;8756;49.29324300;8.70599800;2022-09-09T13:22:52;12.20;;;1.53;;
5847;SDS011;8756;49.29324300;8.70599800;2022-09-09T13:25:26;9.70;;;1.63;;
5847;SDS011;8756;49.29324300;8.70599800;2022-09-09T13:35:53;11.00;;;1.50;;
5847;SDS011;8756;49.29324300;8.70599800;2022-09-09T13:38:21;10.10;;;1.57;;
5847;SDS011;8756;49.29324300;8.70599800;2022-09-09T13:43:45;11.97;;;1.87;;
5847;SDS011;8756;49.29324300;8.70599800;2022-09-09T13:46:25;10.07;;;1.40;;
5847;SDS011;8756;49.29324300;8.70599800;2022-09-09T13:52:01;11.60;;;2.00;;
5847;SDS011;8756;49.29324300;8.70599800;2022-09-09T13:54:33;11.83;;;1.70;;
5847;SDS011;8756;49.29324300;8.70599800;2022-09-09T13:56:59;10.07;;;1.30;;
5847;SDS011;8756;49.29324300;8.70599800;2022-09-09T13:59:26;9.47;;;1.73;;
5847;SDS011;8756;49.29324300;8.70599800;2022-09-09T14:01:52;9.40;;;1.40;;
5847;SDS011;8756;49.29324300;8.70599800;2022-09-09T14:04:18;9.47;;;1.70;;
5847;SDS011;8756;49.29324300;8.70599800;2022-09-09T14:06:47;8.77;;;1.40;;
5847;SDS011;8756;49.29324300;8.70599800;2022-09-09T14:09:15;9.00;;;1.90;;
5847;SDS011;8756;49.29324300;8.70599800;2022-09-09T14:11:42;9.80;;;1.30;;
5847;SDS011;8756;49.29324300;8.70599800;2022-09-09T14:14:08;9.50;;;1.60;;
5847;SDS011;8756;49.29324300;8.70599800;2022-09-09T14:16:34;10.13;;;1.70;;
5847;SDS011;8756;49.29324300;8.70599800;2022-09-09T14:18:59;9.93;;;1.67;;
5847;SDS011;8756;49.29324300;8.70599800;2022-09-09T14:21:26;10.20;;;1.80;;
5847;SDS011;8756;49.29324300;8.70599800;2022-09-09T14:23:52;11.00;;;1.70;;
5847;SDS011;8756;49.29324300;8.70599800;2022-09-09T14:26:21;10.90;;;1.83;;
5847;SDS011;8756;49.29324300;8.70599800;2022-09-09T14:28:47;10.53;;;1.60;;
5847;SDS011;8756;49.29324300;8.70599800;2022-09-09T14:31:12;10.67;;;1.40;;
5847;SDS011;8756;49.29324300;8.70599800;2022-09-09T14:33:38;11.70;;;1.80;;
5847;SDS011;8756;49.29324300;8.70599800;2022-09-09T14:36:05;11.50;;;1.87;;
5847;SDS011;8756;49.29324300;8.70599800;2022-09-09T14:38:32;9.20;;;1.40;;
5847;SDS011;8756;49.29324300;8.70599800;2022-09-09T14:41:00;11.23;;;1.67;;
5847;SDS011;8756;49.29324300;8.70599800;2022-09-09T14:43:29;8.83;;;1.60;;
5847;SDS011;8756;49.29324300;8.70599800;2022-09-09T14:45:57;10.23;;;1.67;;
5847;SDS011;8756;49.29324300;8.70599800;2022-09-09T14:48:30;9.77;;;1.67;;
5847;SDS011;8756;49.29324300;8.70599800;2022-09-09T14:50:56;10.90;;;1.67;;
5847;SDS011;8756;49.29324300;8.70599800;2022-09-09T14:53:21;11.30;;;1.70;;
5847;SDS011;8756;49.29324300;8.70599800;2022-09-09T14:55:47;11.63;;;2.10;;
5847;SDS011;8756;49.29324300;8.70599800;2022-09-09T14:58:13;10.50;;;1.83;;
5847;SDS011;8756;49.29324300;8.70599800;2022-09-09T15:00:38;13.50;;;2.40;;
5847;SDS011;8756;49.29324300;8.70599800;2022-09-09T15:03:04;11.37;;;2.20;;
5847;SDS011;8756;49.29324300;8.70599800;2022-09-09T15:05:31;10.40;;;1.80;;
5847;SDS011;8756;49.29324300;8.70599800;2022-09-09T15:07:56;11.00;;;1.33;;
5847;SDS011;8756;49.29324300;8.70599800;2022-09-09T15:10:23;14.23;;;1.80;;
5847;SDS011;8756;49.29324300;8.70599800;2022-09-09T15:12:49;11.27;;;1.90;;
5847;SDS011;8756;49.29324300;8.70599800;2022-09-09T15:15:15;10.83;;;2.20;;
5847;SDS011;8756;49.29324300;8.70599800;2022-09-09T15:17:40;9.80;;;1.70;;
5847;SDS011;8756;49.29324300;8.70599800;2022-09-09T15:20:06;10.83;;;1.87;;
5847;SDS011;8756;49.29324300;8.70599800;2022-09-09T15:22:32;9.50;;;1.77;;
5847;SDS011;8756;49.29324300;8.70599800;2022-09-09T15:24:58;12.83;;;2.23;;
5847;SDS011;8756;49.29324300;8.70599800;2022-09-09T15:27:24;11.10;;;2.00;;
5847;SDS011;8756;49.29324300;8.70599800;2022-09-09T15:29:50;10.33;;;1.90;;
5847;SDS011;8756;49.29324300;8.70599800;2022-09-09T15:32:16;11.40;;;1.80;;
5847;SDS011;8756;49.29324300;8.70599800;2022-09-09T15:34:42;9.83;;;1.70;;
5847;SDS011;8756;49.29324300;8.70599800;2022-09-09T15:37:09;9.30;;;1.47;;
5847;SDS011;8756;49.29324300;8.70599800;2022-09-09T15:39:38;11.60;;;1.90;;
5847;SDS011;8756;49.29324300;8.70599800;2022-09-09T15:42:04;11.60;;;2.03;;
5847;SDS011;8756;49.29324300;8.70599800;2022-09-09T15:44:29;13.53;;;1.80;;
5847;SDS011;8756;49.29324300;8.70599800;2022-09-09T15:47:02;10.10;;;1.60;;
5847;SDS011;8756;49.29324300;8.70599800;2022-09-09T15:49:28;9.90;;;1.83;;
5847;SDS011;8756;49.29324300;8.70599800;2022-09-09T15:51:54;13.07;;;2.13;;
5847;SDS011;8756;49.29324300;8.70599800;2022-09-09T15:54:28;10.37;;;1.73;;
5847;SDS011;8756;49.29324300;8.70599800;2022-09-09T15:56:58;9.80;;;1.83;;
5847;SDS011;8756;49.29324300;8.70599800;2022-09-09T15:59:27;13.47;;;1.97;;
5847;SDS011;8756;49.29324300;8.70599800;2022-09-09T16:01:54;10.40;;;1.60;;
5847;SDS011;8756;49.29324300;8.70599800;2022-09-09T16:04:20;9.20;;;1.80;;
5847;SDS011;8756;49.29324300;8.70599800;2022-09-09T16:06:51;11.67;;;1.80;;
5847;SDS011;8756;49.29324300;8.70599800;2022-09-09T16:09:17;14.73;;;1.90;;